sensor_id;sensor_type;location;lat;lon;timestamp;P1;durP1;ratioP1;P2;durP2;ratioP2
45893;SDS011;31603;51.148;16.932;2023-02-25T00:02:13;8.15;;;5.50;;
45893;SDS011;31603;51.148;16.932;2023-02-25T00:04:41;9.35;;;5.82;;
45893;SDS011;31603;51.148;16.932;2023-02-25T00:07:10;8.57;;;6.03;;
45893;SDS011;31603;51.148;16.932;2023-02-25T00:09:37;8.63;;;5.13;;
45893;SDS011;31603;51.148;16.932;2023-02-25T00:12:04;8.02;;;5.45;;
45893;SDS011;31603;51.148;16.932;2023-02-25T00:14:31;8.10;;;5.05;;
45893;SDS011;31603;51.148;16.932;2023-02-25T00:16:58;6.70;;;4.80;;
45893;SDS011;31603;51.148;16.932;2023-02-25T00:19:26;8.20;;;4.85;;
45893;SDS011;31603;51.148;16.932;2023-02-25T00:21:55;8.13;;;5.03;;
45893;SDS011;31603;51.148;16.932;2023-02-25T00:24:22;7.97;;;4.75;;
45893;SDS011;31603;51.148;16.932;2023-02-25T00:26:48;7.68;;;5.18;;
45893;SDS011;31603;51.148;16.932;2023-02-25T00:29:15;9.20;;;5.03;;
45893;SDS011;31603;51.148;16.932;2023-02-25T00:31:42;7.97;;;5.65;;
45893;SDS011;31603;51.148;16.932;2023-02-25T00:34:10;7.38;;;5.00;;
45893;SDS011;31603;51.148;16.932;2023-02-25T00:36:37;7.55;;;4.40;;
45893;SDS011;31603;51.148;16.932;2023-02-25T00:39:05;8.68;;;5.10;;
45893;SDS011;31603;51.148;16.932;2023-02-25T00:41:33;6.60;;;4.72;;
45893;SDS011;31603;51.148;16.932;2023-02-25T00:44:00;7.00;;;4.57;;
45893;SDS011;31603;51.148;16.932;2023-02-25T00:46:27;7.10;;;4.68;;
45893;SDS011;31603;51.148;16.932;2023-02-25T00:48:54;6.45;;;4.55;;
45893;SDS011;31603;51.148;16.932;2023-02-25T00:51:23;7.93;;;4.30;;
45893;SDS011;31603;51.148;16.932;2023-02-25T00:53:51;4.82;;;3.10;;
45893;SDS011;31603;51.148;16.932;2023-02-25T00:56:21;5.85;;;3.50;;
45893;SDS011;31603;51.148;16.932;2023-02-25T00:58:50;8.15;;;5.10;;
45893;SDS011;31603;51.148;16.932;2023-02-25T01:01:19;9.88;;;5.10;;
45893;SDS011;31603;51.148;16.932;2023-02-25T01:03:48;7.40;;;4.05;;
45893;SDS011;31603;51.148;16.932;2023-02-25T01:06:16;5.47;;;3.83;;
45893;SDS011;31603;51.148;16.932;2023-02-25T01:08:43;7.22;;;4.85;;
45893;SDS011;31603;51.148;16.932;2023-02-25T01:11:11;8.43;;;5.53;;
45893;SDS011;31603;51.148;16.932;2023-02-25T01:13:42;9.38;;;5.72;;
45893;SDS011;31603;51.148;16.932;2023-02-25T01:16:10;9.98;;;5.15;;
45893;SDS011;31603;51.148;16.932;2023-02-25T01:18:37;7.90;;;5.25;;
45893;SDS011;31603;51.148;16.932;2023-02-25T01:21:04;8.73;;;5.75;;
45893;SDS011;31603;51.148;16.932;2023-02-25T01:23:31;9.50;;;6.10;;
45893;SDS011;31603;51.148;16.932;2023-02-25T01:25:57;8.48;;;5.47;;
45893;SDS011;31603;51.148;16.932;2023-02-25T01:28:31;9.05;;;6.03;;
45893;SDS011;31603;51.148;16.932;2023-02-25T01:31:03;9.75;;;6.13;;
45893;SDS011;31603;51.148;16.932;2023-02-25T01:33:32;11.82;;;6.53;;
45893;SDS011;31603;51.148;16.932;2023-02-25T01:36:02;6.35;;;3.97;;
45893;SDS011;31603;51.148;16.932;2023-02-25T01:38:29;9.73;;;6.43;;
45893;SDS011;31603;51.148;16.932;2023-02-25T01:40:56;9.38;;;5.10;;
45893;SDS011;31603;51.148;16.932;2023-02-25T01:43:24;10.35;;;6.15;;
45893;SDS011;31603;51.148;16.932;2023-02-25T01:45:52;12.70;;;7.10;;
45893;SDS011;31603;51.148;16.932;2023-02-25T01:48:22;11.18;;;6.32;;
45893;SDS011;31603;51.148;16.932;2023-02-25T01:50:53;11.40;;;6.57;;
45893;SDS011;31603;51.148;16.932;2023-02-25T01:53:27;9.05;;;6.47;;
45893;SDS011;31603;51.148;16.932;2023-02-25T01:55:56;9.85;;;6.10;;
45893;SDS011;31603;51.148;16.932;2023-02-25T01:58:28;10.60;;;6.03;;
45893;SDS011;31603;51.148;16.932;2023-02-25T02:00:55;11.95;;;7.72;;
45893;SDS011;31603;51.148;16.932;2023-02-25T02:03:24;11.95;;;6.95;;
45893;SDS011;31603;51.148;16.932;2023-02-25T02:05:54;10.43;;;6.60;;
45893;SDS011;31603;51.148;16.932;2023-02-25T02:08:28;11.77;;;7.18;;
45893;SDS011;31603;51.148;16.932;2023-02-25T02:10:57;10.02;;;6.75;;
45893;SDS011;31603;51.148;16.932;2023-02-25T02:13:25;12.88;;;6.85;;
45893;SDS011;31603;51.148;16.932;2023-02-25T02:15:56;9.02;;;5.30;;
45893;SDS011;31603;51.148;16.932;2023-02-25T02:18:32;11.20;;;7.13;;
45893;SDS011;31603;51.148;16.932;2023-02-25T02:21:06;11.90;;;7.63;;
45893;SDS011;31603;51.148;16.932;2023-02-25T02:23:57;12.20;;;7.38;;
45893;SDS011;31603;51.148;16.932;2023-02-25T02:26:55;10.65;;;6.05;;
45893;SDS011;31603;51.148;16.932;2023-02-25T02:32:36;9.90;;;6.20;;
45893;SDS011;31603;51.148;16.932;2023-02-25T02:35:12;10.27;;;6.57;;
45893;SDS011;31603;51.148;16.932;2023-02-25T02:37:44;9.57;;;5.95;;
45893;SDS011;31603;51.148;16.932;2023-02-25T02:40:24;10.80;;;6.57;;
45893;SDS011;31603;51.148;16.932;2023-02-25T02:43:04;11.07;;;6.20;;
45893;SDS011;31603;51.148;16.932;2023-02-25T02:45:38;12.80;;;6.50;;
45893;SDS011;31603;51.148;16.932;2023-02-25T02:48:12;65.82;;;8.15;;
45893;SDS011;31603;51.148;16.932;2023-02-25T02:50:43;13.43;;;6.65;;
45893;SDS011;31603;51.148;16.932;2023-02-25T02:53:13;12.75;;;7.72;;
45893;SDS011;31603;51.148;16.932;2023-02-25T02:58:26;10.25;;;6.20;;
45893;SDS011;31603;51.148;16.932;2023-02-25T03:00:57;11.13;;;7.03;;
45893;SDS011;31603;51.148;16.932;2023-02-25T03:03:28;10.93;;;5.53;;
45893;SDS011;31603;51.148;16.932;2023-02-25T03:06:01;10.25;;;5.70;;
45893;SDS011;31603;51.148;16.932;2023-02-25T03:08:32;11.55;;;6.60;;
45893;SDS011;31603;51.148;16.932;2023-02-25T03:11:05;10.25;;;5.97;;
45893;SDS011;31603;51.148;16.932;2023-02-25T03:13:31;10.15;;;6.65;;
45893;SDS011;31603;51.148;16.932;2023-02-25T03:15:58;9.40;;;5.47;;
45893;SDS011;31603;51.148;16.932;2023-02-25T03:18:31;8.18;;;5.80;;
45893;SDS011;31603;51.148;16.932;2023-02-25T03:21:02;9.25;;;5.78;;
45893;SDS011;31603;51.148;16.932;2023-02-25T03:23:33;11.02;;;7.22;;
45893;SDS011;31603;51.148;16.932;2023-02-25T03:26:07;9.68;;;5.45;;
45893;SDS011;31603;51.148;16.932;2023-02-25T03:28:39;13.02;;;6.53;;
45893;SDS011;31603;51.148;16.932;2023-02-25T03:31:23;8.07;;;4.90;;
45893;SDS011;31603;51.148;16.932;2023-02-25T03:34:06;9.48;;;5.63;;
45893;SDS011;31603;51.148;16.932;2023-02-25T03:36:39;11.00;;;5.32;;
45893;SDS011;31603;51.148;16.932;2023-02-25T03:39:09;7.78;;;5.07;;
45893;SDS011;31603;51.148;16.932;2023-02-25T03:41:39;5.93;;;3.42;;
45893;SDS011;31603;51.148;16.932;2023-02-25T03:44:22;9.13;;;5.20;;
45893;SDS011;31603;51.148;16.932;2023-02-25T03:46:52;6.85;;;4.18;;
45893;SDS011;31603;51.148;16.932;2023-02-25T03:49:22;8.25;;;4.95;;
45893;SDS011;31603;51.148;16.932;2023-02-25T03:51:52;10.15;;;3.90;;
45893;SDS011;31603;51.148;16.932;2023-02-25T03:54:29;8.68;;;4.22;;
45893;SDS011;31603;51.148;16.932;2023-02-25T03:56:55;5.82;;;2.90;;
45893;SDS011;31603;51.148;16.932;2023-02-25T03:59:30;6.82;;;3.50;;
45893;SDS011;31603;51.148;16.932;2023-02-25T04:01:56;8.45;;;3.70;;
45893;SDS011;31603;51.148;16.932;2023-02-25T04:04:30;6.72;;;3.92;;
45893;SDS011;31603;51.148;16.932;2023-02-25T04:06:57;9.13;;;4.15;;
45893;SDS011;31603;51.148;16.932;2023-02-25T04:09:26;6.72;;;4.80;;
45893;SDS011;31603;51.148;16.932;2023-02-25T04:11:52;8.38;;;4.35;;
45893;SDS011;31603;51.148;16.932;2023-02-25T04:14:27;7.38;;;4.20;;
45893;SDS011;31603;51.148;16.932;2023-02-25T04:16:54;8.88;;;3.60;;
45893;SDS011;31603;51.148;16.932;2023-02-25T04:19:21;7.20;;;3.63;;
45893;SDS011;31603;51.148;16.932;2023-02-25T04:21:49;7.45;;;2.80;;
45893;SDS011;31603;51.148;16.932;2023-02-25T04:24:29;6.40;;;3.65;;
45893;SDS011;31603;51.148;16.932;2023-02-25T04:26:56;11.80;;;4.03;;
45893;SDS011;31603;51.148;16.932;2023-02-25T04:29:26;8.80;;;4.60;;
45893;SDS011;31603;51.148;16.932;2023-02-25T04:31:53;11.82;;;4.63;;
45893;SDS011;31603;51.148;16.932;2023-02-25T04:34:20;7.68;;;3.45;;
45893;SDS011;31603;51.148;16.932;2023-02-25T04:36:46;10.43;;;3.25;;
45893;SDS011;31603;51.148;16.932;2023-02-25T04:39:28;8.15;;;3.65;;
45893;SDS011;31603;51.148;16.932;2023-02-25T04:41:55;8.05;;;3.20;;
45893;SDS011;31603;51.148;16.932;2023-02-25T04:44:21;6.82;;;3.55;;
45893;SDS011;31603;51.148;16.932;2023-02-25T04:46:48;8.07;;;3.30;;
45893;SDS011;31603;51.148;16.932;2023-02-25T04:49:19;4.05;;;2.05;;
45893;SDS011;31603;51.148;16.932;2023-02-25T04:51:47;6.97;;;2.55;;
45893;SDS011;31603;51.148;16.932;2023-02-25T04:54:15;5.60;;;3.67;;
45893;SDS011;31603;51.148;16.932;2023-02-25T04:56:44;9.25;;;3.75;;
45893;SDS011;31603;51.148;16.932;2023-02-25T04:59:11;7.93;;;3.70;;
45893;SDS011;31603;51.148;16.932;2023-02-25T05:01:38;6.78;;;2.63;;
45893;SDS011;31603;51.148;16.932;2023-02-25T05:04:05;7.82;;;3.55;;
45893;SDS011;31603;51.148;16.932;2023-02-25T05:06:31;5.95;;;2.35;;
45893;SDS011;31603;51.148;16.932;2023-02-25T05:08:58;6.63;;;3.22;;
45893;SDS011;31603;51.148;16.932;2023-02-25T05:11:26;7.22;;;4.53;;
45893;SDS011;31603;51.148;16.932;2023-02-25T05:13:55;8.70;;;2.80;;
45893;SDS011;31603;51.148;16.932;2023-02-25T05:16:22;7.40;;;2.97;;
45893;SDS011;31603;51.148;16.932;2023-02-25T05:18:50;7.93;;;3.28;;
45893;SDS011;31603;51.148;16.932;2023-02-25T05:21:18;7.97;;;2.78;;
45893;SDS011;31603;51.148;16.932;2023-02-25T05:23:47;7.25;;;3.30;;
45893;SDS011;31603;51.148;16.932;2023-02-25T05:26:16;7.32;;;2.50;;
45893;SDS011;31603;51.148;16.932;2023-02-25T05:28:46;7.80;;;3.22;;
45893;SDS011;31603;51.148;16.932;2023-02-25T05:31:17;9.32;;;3.35;;
45893;SDS011;31603;51.148;16.932;2023-02-25T05:33:44;7.38;;;3.20;;
45893;SDS011;31603;51.148;16.932;2023-02-25T05:36:12;9.82;;;3.08;;
45893;SDS011;31603;51.148;16.932;2023-02-25T05:38:40;9.55;;;3.10;;
45893;SDS011;31603;51.148;16.932;2023-02-25T05:41:07;6.50;;;2.97;;
45893;SDS011;31603;51.148;16.932;2023-02-25T05:43:34;7.70;;;2.38;;
45893;SDS011;31603;51.148;16.932;2023-02-25T05:46:03;8.77;;;3.20;;
45893;SDS011;31603;51.148;16.932;2023-02-25T05:48:34;8.40;;;3.10;;
45893;SDS011;31603;51.148;16.932;2023-02-25T05:51:01;9.45;;;3.25;;
45893;SDS011;31603;51.148;16.932;2023-02-25T05:53:29;7.43;;;3.15;;
45893;SDS011;31603;51.148;16.932;2023-02-25T05:55:56;5.05;;;2.63;;
45893;SDS011;31603;51.148;16.932;2023-02-25T05:58:23;3.38;;;1.73;;
45893;SDS011;31603;51.148;16.932;2023-02-25T06:00:49;4.38;;;1.85;;
45893;SDS011;31603;51.148;16.932;2023-02-25T06:03:17;4.47;;;2.58;;
45893;SDS011;31603;51.148;16.932;2023-02-25T06:05:45;4.25;;;2.70;;
45893;SDS011;31603;51.148;16.932;2023-02-25T06:08:12;6.43;;;2.38;;
45893;SDS011;31603;51.148;16.932;2023-02-25T06:10:39;8.10;;;2.58;;
45893;SDS011;31603;51.148;16.932;2023-02-25T06:13:05;4.28;;;2.72;;
45893;SDS011;31603;51.148;16.932;2023-02-25T06:15:32;3.55;;;2.47;;
45893;SDS011;31603;51.148;16.932;2023-02-25T06:17:59;5.30;;;2.45;;
45893;SDS011;31603;51.148;16.932;2023-02-25T06:20:29;4.97;;;2.75;;
45893;SDS011;31603;51.148;16.932;2023-02-25T06:23:04;4.13;;;2.35;;
45893;SDS011;31603;51.148;16.932;2023-02-25T06:25:31;3.30;;;1.80;;
45893;SDS011;31603;51.148;16.932;2023-02-25T06:27:58;5.47;;;2.50;;
45893;SDS011;31603;51.148;16.932;2023-02-25T06:30:30;4.13;;;2.35;;
45893;SDS011;31603;51.148;16.932;2023-02-25T06:32:56;7.47;;;2.78;;
45893;SDS011;31603;51.148;16.932;2023-02-25T06:35:27;6.05;;;2.88;;
45893;SDS011;31603;51.148;16.932;2023-02-25T06:37:54;5.50;;;3.53;;
45893;SDS011;31603;51.148;16.932;2023-02-25T06:40:25;6.35;;;3.72;;
45893;SDS011;31603;51.148;16.932;2023-02-25T06:42:53;9.85;;;3.60;;
45893;SDS011;31603;51.148;16.932;2023-02-25T06:45:20;8.18;;;3.88;;
45893;SDS011;31603;51.148;16.932;2023-02-25T06:47:47;5.72;;;3.05;;
45893;SDS011;31603;51.148;16.932;2023-02-25T06:50:16;6.35;;;3.83;;
45893;SDS011;31603;51.148;16.932;2023-02-25T06:52:44;6.70;;;3.83;;
45893;SDS011;31603;51.148;16.932;2023-02-25T06:55:11;5.25;;;3.67;;
45893;SDS011;31603;51.148;16.932;2023-02-25T06:57:38;5.63;;;3.20;;
45893;SDS011;31603;51.148;16.932;2023-02-25T07:00:06;5.63;;;3.50;;
45893;SDS011;31603;51.148;16.932;2023-02-25T07:02:33;6.95;;;3.85;;
45893;SDS011;31603;51.148;16.932;2023-02-25T07:05:00;5.00;;;3.28;;
45893;SDS011;31603;51.148;16.932;2023-02-25T07:07:29;4.55;;;3.00;;
45893;SDS011;31603;51.148;16.932;2023-02-25T07:09:56;7.05;;;4.20;;
45893;SDS011;31603;51.148;16.932;2023-02-25T07:12:22;5.43;;;3.50;;
45893;SDS011;31603;51.148;16.932;2023-02-25T07:14:51;8.77;;;4.07;;
45893;SDS011;31603;51.148;16.932;2023-02-25T07:17:31;7.30;;;4.78;;
45893;SDS011;31603;51.148;16.932;2023-02-25T07:19:58;4.43;;;2.80;;
45893;SDS011;31603;51.148;16.932;2023-02-25T07:22:24;3.47;;;2.13;;
45893;SDS011;31603;51.148;16.932;2023-02-25T07:24:50;6.28;;;3.13;;
45893;SDS011;31603;51.148;16.932;2023-02-25T07:27:17;3.58;;;2.28;;
45893;SDS011;31603;51.148;16.932;2023-02-25T07:29:44;4.47;;;2.85;;
45893;SDS011;31603;51.148;16.932;2023-02-25T07:32:12;4.32;;;2.70;;
45893;SDS011;31603;51.148;16.932;2023-02-25T07:34:38;5.18;;;3.25;;
45893;SDS011;31603;51.148;16.932;2023-02-25T07:37:04;6.38;;;3.75;;
45893;SDS011;31603;51.148;16.932;2023-02-25T07:39:31;3.75;;;2.65;;
45893;SDS011;31603;51.148;16.932;2023-02-25T07:41:57;5.68;;;3.78;;
45893;SDS011;31603;51.148;16.932;2023-02-25T07:44:24;6.75;;;3.85;;
45893;SDS011;31603;51.148;16.932;2023-02-25T07:46:50;6.10;;;3.45;;
45893;SDS011;31603;51.148;16.932;2023-02-25T07:49:18;4.88;;;3.22;;
45893;SDS011;31603;51.148;16.932;2023-02-25T07:51:45;6.15;;;3.25;;
45893;SDS011;31603;51.148;16.932;2023-02-25T07:54:25;4.88;;;3.13;;
45893;SDS011;31603;51.148;16.932;2023-02-25T07:56:52;6.20;;;3.95;;
45893;SDS011;31603;51.148;16.932;2023-02-25T07:59:32;4.18;;;2.55;;
45893;SDS011;31603;51.148;16.932;2023-02-25T08:02:02;5.28;;;3.00;;
45893;SDS011;31603;51.148;16.932;2023-02-25T08:04:31;4.63;;;3.30;;
45893;SDS011;31603;51.148;16.932;2023-02-25T08:06:58;3.95;;;2.70;;
45893;SDS011;31603;51.148;16.932;2023-02-25T08:09:26;6.90;;;3.90;;
45893;SDS011;31603;51.148;16.932;2023-02-25T08:11:53;4.07;;;3.00;;
45893;SDS011;31603;51.148;16.932;2023-02-25T08:14:20;6.90;;;3.55;;
45893;SDS011;31603;51.148;16.932;2023-02-25T08:16:46;5.90;;;4.63;;
45893;SDS011;31603;51.148;16.932;2023-02-25T08:19:27;4.65;;;3.28;;
45893;SDS011;31603;51.148;16.932;2023-02-25T08:24:47;6.97;;;3.80;;
45893;SDS011;31603;51.148;16.932;2023-02-25T08:27:14;3.92;;;3.22;;
45893;SDS011;31603;51.148;16.932;2023-02-25T08:29:40;5.57;;;3.75;;
45893;SDS011;31603;51.148;16.932;2023-02-25T08:32:07;6.80;;;3.90;;
45893;SDS011;31603;51.148;16.932;2023-02-25T08:34:34;4.72;;;3.25;;
45893;SDS011;31603;51.148;16.932;2023-02-25T08:37:00;4.85;;;3.38;;
45893;SDS011;31603;51.148;16.932;2023-02-25T08:39:27;4.80;;;2.88;;
45893;SDS011;31603;51.148;16.932;2023-02-25T08:41:57;7.13;;;4.07;;
45893;SDS011;31603;51.148;16.932;2023-02-25T08:44:27;7.13;;;4.22;;
45893;SDS011;31603;51.148;16.932;2023-02-25T08:46:54;5.10;;;3.55;;
45893;SDS011;31603;51.148;16.932;2023-02-25T08:49:28;5.78;;;3.78;;
45893;SDS011;31603;51.148;16.932;2023-02-25T08:51:55;5.10;;;4.28;;
45893;SDS011;31603;51.148;16.932;2023-02-25T08:54:29;4.85;;;3.88;;
45893;SDS011;31603;51.148;16.932;2023-02-25T08:56:59;3.83;;;2.92;;
45893;SDS011;31603;51.148;16.932;2023-02-25T08:59:25;5.75;;;3.60;;
45893;SDS011;31603;51.148;16.932;2023-02-25T09:01:52;5.05;;;3.33;;
45893;SDS011;31603;51.148;16.932;2023-02-25T09:04:30;5.32;;;3.53;;
45893;SDS011;31603;51.148;16.932;2023-02-25T09:06:57;5.28;;;3.63;;
45893;SDS011;31603;51.148;16.932;2023-02-25T09:09:28;4.57;;;3.08;;
45893;SDS011;31603;51.148;16.932;2023-02-25T09:11:55;6.07;;;3.88;;
45893;SDS011;31603;51.148;16.932;2023-02-25T09:14:24;6.63;;;3.90;;
45893;SDS011;31603;51.148;16.932;2023-02-25T09:16:50;4.88;;;3.60;;
45893;SDS011;31603;51.148;16.932;2023-02-25T09:19:17;4.75;;;2.75;;
45893;SDS011;31603;51.148;16.932;2023-02-25T09:21:43;7.15;;;3.92;;
45893;SDS011;31603;51.148;16.932;2023-02-25T09:24:12;5.38;;;3.60;;
45893;SDS011;31603;51.148;16.932;2023-02-25T09:26:39;5.07;;;3.20;;
45893;SDS011;31603;51.148;16.932;2023-02-25T09:29:06;4.22;;;3.42;;
45893;SDS011;31603;51.148;16.932;2023-02-25T09:31:34;3.60;;;2.92;;
45893;SDS011;31603;51.148;16.932;2023-02-25T09:34:01;3.28;;;2.60;;
45893;SDS011;31603;51.148;16.932;2023-02-25T09:36:30;4.43;;;3.42;;
45893;SDS011;31603;51.148;16.932;2023-02-25T09:38:57;4.03;;;3.58;;
45893;SDS011;31603;51.148;16.932;2023-02-25T09:41:27;5.68;;;3.75;;
45893;SDS011;31603;51.148;16.932;2023-02-25T09:43:59;6.50;;;4.75;;
45893;SDS011;31603;51.148;16.932;2023-02-25T09:46:30;5.35;;;3.90;;
45893;SDS011;31603;51.148;16.932;2023-02-25T09:49:01;3.88;;;3.40;;
45893;SDS011;31603;51.148;16.932;2023-02-25T09:51:34;4.38;;;3.05;;
45893;SDS011;31603;51.148;16.932;2023-02-25T09:54:06;4.57;;;3.42;;
45893;SDS011;31603;51.148;16.932;2023-02-25T09:56:38;4.97;;;3.33;;
45893;SDS011;31603;51.148;16.932;2023-02-25T09:59:07;4.65;;;3.63;;
45893;SDS011;31603;51.148;16.932;2023-02-25T10:01:39;6.88;;;3.88;;
45893;SDS011;31603;51.148;16.932;2023-02-25T10:06:41;4.88;;;3.63;;
45893;SDS011;31603;51.148;16.932;2023-02-25T10:09:13;5.75;;;3.65;;
45893;SDS011;31603;51.148;16.932;2023-02-25T10:11:48;4.28;;;3.60;;
45893;SDS011;31603;51.148;16.932;2023-02-25T10:14:21;4.22;;;2.85;;
45893;SDS011;31603;51.148;16.932;2023-02-25T10:16:59;5.40;;;4.30;;
45893;SDS011;31603;51.148;16.932;2023-02-25T10:19:37;5.13;;;3.88;;
45893;SDS011;31603;51.148;16.932;2023-02-25T10:22:20;4.18;;;3.45;;
45893;SDS011;31603;51.148;16.932;2023-02-25T10:24:58;3.78;;;3.28;;
45893;SDS011;31603;51.148;16.932;2023-02-25T10:27:35;3.20;;;2.58;;
45893;SDS011;31603;51.148;16.932;2023-02-25T10:30:04;3.35;;;2.50;;
45893;SDS011;31603;51.148;16.932;2023-02-25T10:32:36;3.67;;;2.90;;
45893;SDS011;31603;51.148;16.932;2023-02-25T10:35:13;2.53;;;2.30;;
45893;SDS011;31603;51.148;16.932;2023-02-25T10:37:42;2.75;;;2.03;;
45893;SDS011;31603;51.148;16.932;2023-02-25T10:40:12;1.92;;;1.60;;
45893;SDS011;31603;51.148;16.932;2023-02-25T10:42:40;1.23;;;1.10;;
45893;SDS011;31603;51.148;16.932;2023-02-25T10:45:11;0.97;;;0.67;;
45893;SDS011;31603;51.148;16.932;2023-02-25T10:47:44;1.00;;;0.80;;
45893;SDS011;31603;51.148;16.932;2023-02-25T10:50:17;2.40;;;0.77;;
45893;SDS011;31603;51.148;16.932;2023-02-25T10:52:52;1.30;;;0.70;;
45893;SDS011;31603;51.148;16.932;2023-02-25T10:55:26;1.13;;;0.90;;
45893;SDS011;31603;51.148;16.932;2023-02-25T10:57:54;1.42;;;0.80;;
45893;SDS011;31603;51.148;16.932;2023-02-25T11:00:22;1.67;;;1.15;;
45893;SDS011;31603;51.148;16.932;2023-02-25T11:02:53;1.20;;;1.00;;
45893;SDS011;31603;51.148;16.932;2023-02-25T11:05:29;1.23;;;1.13;;
45893;SDS011;31603;51.148;16.932;2023-02-25T11:08:00;1.63;;;1.38;;
45893;SDS011;31603;51.148;16.932;2023-02-25T11:10:29;1.77;;;1.17;;
45893;SDS011;31603;51.148;16.932;2023-02-25T11:12:56;1.20;;;1.00;;
45893;SDS011;31603;51.148;16.932;2023-02-25T11:15:27;1.60;;;1.40;;
45893;SDS011;31603;51.148;16.932;2023-02-25T11:17:59;0.80;;;0.70;;
45893;SDS011;31603;51.148;16.932;2023-02-25T11:22:58;1.02;;;0.60;;
45893;SDS011;31603;51.148;16.932;2023-02-25T11:25:31;0.93;;;0.60;;
45893;SDS011;31603;51.148;16.932;2023-02-25T11:28:02;1.27;;;0.65;;
45893;SDS011;31603;51.148;16.932;2023-02-25T11:30:29;1.33;;;0.70;;
45893;SDS011;31603;51.148;16.932;2023-02-25T11:32:58;0.60;;;0.57;;
45893;SDS011;31603;51.148;16.932;2023-02-25T11:35:29;1.10;;;0.77;;
45893;SDS011;31603;51.148;16.932;2023-02-25T11:40:39;2.47;;;0.98;;
45893;SDS011;31603;51.148;16.932;2023-02-25T11:43:13;0.85;;;0.68;;
45893;SDS011;31603;51.148;16.932;2023-02-25T11:45:46;2.60;;;1.33;;
45893;SDS011;31603;51.148;16.932;2023-02-25T11:48:25;1.02;;;0.85;;
45893;SDS011;31603;51.148;16.932;2023-02-25T11:50:56;2.20;;;1.30;;
45893;SDS011;31603;51.148;16.932;2023-02-25T11:53:34;1.65;;;0.85;;
45893;SDS011;31603;51.148;16.932;2023-02-25T11:56:12;1.70;;;1.08;;
45893;SDS011;31603;51.148;16.932;2023-02-25T11:58:56;3.88;;;2.22;;
45893;SDS011;31603;51.148;16.932;2023-02-25T12:01:40;3.53;;;2.05;;
45893;SDS011;31603;51.148;16.932;2023-02-25T12:04:28;4.05;;;2.05;;
45893;SDS011;31603;51.148;16.932;2023-02-25T12:07:16;1.88;;;1.27;;
45893;SDS011;31603;51.148;16.932;2023-02-25T12:10:04;3.17;;;1.20;;
45893;SDS011;31603;51.148;16.932;2023-02-25T12:15:48;2.35;;;1.15;;
45893;SDS011;31603;51.148;16.932;2023-02-25T12:21:44;3.00;;;1.55;;
45893;SDS011;31603;51.148;16.932;2023-02-25T12:24:40;3.38;;;1.25;;
45893;SDS011;31603;51.148;16.932;2023-02-25T12:30:28;2.22;;;1.15;;
45893;SDS011;31603;51.148;16.932;2023-02-25T12:33:10;4.72;;;1.52;;
45893;SDS011;31603;51.148;16.932;2023-02-25T12:35:48;6.20;;;2.17;;
45893;SDS011;31603;51.148;16.932;2023-02-25T12:41:41;3.67;;;1.92;;
45893;SDS011;31603;51.148;16.932;2023-02-25T12:44:18;1.90;;;1.17;;
45893;SDS011;31603;51.148;16.932;2023-02-25T12:47:04;2.78;;;1.45;;
45893;SDS011;31603;51.148;16.932;2023-02-25T12:49:47;2.60;;;1.33;;
45893;SDS011;31603;51.148;16.932;2023-02-25T12:52:46;2.33;;;1.40;;
45893;SDS011;31603;51.148;16.932;2023-02-25T13:10:27;4.72;;;1.88;;
45893;SDS011;31603;51.148;16.932;2023-02-25T13:13:12;2.83;;;1.50;;
45893;SDS011;31603;51.148;16.932;2023-02-25T13:15:54;2.10;;;1.30;;
45893;SDS011;31603;51.148;16.932;2023-02-25T13:18:37;3.85;;;1.73;;
45893;SDS011;31603;51.148;16.932;2023-02-25T13:21:23;3.40;;;1.60;;
45893;SDS011;31603;51.148;16.932;2023-02-25T13:24:07;1.25;;;0.90;;
45893;SDS011;31603;51.148;16.932;2023-02-25T13:26:53;2.13;;;1.52;;
45893;SDS011;31603;51.148;16.932;2023-02-25T13:29:36;1.83;;;1.05;;
45893;SDS011;31603;51.148;16.932;2023-02-25T13:32:21;3.63;;;1.88;;
45893;SDS011;31603;51.148;16.932;2023-02-25T13:35:04;3.45;;;1.88;;
45893;SDS011;31603;51.148;16.932;2023-02-25T13:37:44;2.20;;;1.50;;
45893;SDS011;31603;51.148;16.932;2023-02-25T13:40:28;2.17;;;1.63;;
45893;SDS011;31603;51.148;16.932;2023-02-25T13:43:19;3.72;;;1.98;;
45893;SDS011;31603;51.148;16.932;2023-02-25T13:46:05;2.13;;;1.50;;
45893;SDS011;31603;51.148;16.932;2023-02-25T13:49:07;7.60;;;3.88;;
45893;SDS011;31603;51.148;16.932;2023-02-25T13:52:25;2.75;;;1.63;;
45893;SDS011;31603;51.148;16.932;2023-02-25T13:58:13;2.42;;;1.45;;
45893;SDS011;31603;51.148;16.932;2023-02-25T14:01:14;4.45;;;2.25;;
45893;SDS011;31603;51.148;16.932;2023-02-25T14:04:06;3.55;;;1.95;;
45893;SDS011;31603;51.148;16.932;2023-02-25T14:13:32;3.17;;;2.15;;
45893;SDS011;31603;51.148;16.932;2023-02-25T14:16:17;2.08;;;1.70;;
45893;SDS011;31603;51.148;16.932;2023-02-25T14:19:01;2.38;;;2.10;;
45893;SDS011;31603;51.148;16.932;2023-02-25T14:21:48;2.38;;;1.77;;
45893;SDS011;31603;51.148;16.932;2023-02-25T14:24:32;2.83;;;1.67;;
45893;SDS011;31603;51.148;16.932;2023-02-25T14:27:08;1.90;;;1.25;;
45893;SDS011;31603;51.148;16.932;2023-02-25T14:29:54;2.83;;;1.88;;
45893;SDS011;31603;51.148;16.932;2023-02-25T14:32:32;2.60;;;1.75;;
45893;SDS011;31603;51.148;16.932;2023-02-25T14:35:15;3.47;;;1.90;;
45893;SDS011;31603;51.148;16.932;2023-02-25T14:37:55;3.25;;;2.15;;
45893;SDS011;31603;51.148;16.932;2023-02-25T14:40:33;2.45;;;2.13;;
45893;SDS011;31603;51.148;16.932;2023-02-25T14:43:18;4.25;;;2.42;;
45893;SDS011;31603;51.148;16.932;2023-02-25T14:45:58;3.20;;;2.38;;
45893;SDS011;31603;51.148;16.932;2023-02-25T14:48:29;3.35;;;2.20;;
45893;SDS011;31603;51.148;16.932;2023-02-25T14:51:09;3.30;;;2.13;;
45893;SDS011;31603;51.148;16.932;2023-02-25T14:53:58;3.10;;;2.47;;
45893;SDS011;31603;51.148;16.932;2023-02-25T14:56:50;3.78;;;2.38;;
45893;SDS011;31603;51.148;16.932;2023-02-25T14:59:50;2.83;;;2.10;;
45893;SDS011;31603;51.148;16.932;2023-02-25T15:02:47;4.10;;;2.20;;
45893;SDS011;31603;51.148;16.932;2023-02-25T15:05:30;3.75;;;2.00;;
45893;SDS011;31603;51.148;16.932;2023-02-25T15:08:15;3.35;;;2.03;;
45893;SDS011;31603;51.148;16.932;2023-02-25T15:11:12;2.80;;;2.22;;
45893;SDS011;31603;51.148;16.932;2023-02-25T15:17:15;3.55;;;2.58;;
45893;SDS011;31603;51.148;16.932;2023-02-25T15:20:09;3.63;;;1.98;;
45893;SDS011;31603;51.148;16.932;2023-02-25T15:22:55;3.20;;;2.10;;
45893;SDS011;31603;51.148;16.932;2023-02-25T15:25:35;2.53;;;1.83;;
45893;SDS011;31603;51.148;16.932;2023-02-25T15:28:18;2.22;;;1.80;;
45893;SDS011;31603;51.148;16.932;2023-02-25T15:31:03;2.88;;;2.00;;
45893;SDS011;31603;51.148;16.932;2023-02-25T15:33:35;3.15;;;2.47;;
45893;SDS011;31603;51.148;16.932;2023-02-25T15:38:46;3.35;;;2.22;;
45893;SDS011;31603;51.148;16.932;2023-02-25T15:49:46;6.78;;;3.83;;
45893;SDS011;31603;51.148;16.932;2023-02-25T15:55:18;4.63;;;3.55;;
45893;SDS011;31603;51.148;16.932;2023-02-25T15:57:46;4.20;;;2.67;;
45893;SDS011;31603;51.148;16.932;2023-02-25T16:06:08;4.63;;;3.08;;
45893;SDS011;31603;51.148;16.932;2023-02-25T16:08:38;4.45;;;2.83;;
45893;SDS011;31603;51.148;16.932;2023-02-25T16:11:13;4.55;;;3.08;;
45893;SDS011;31603;51.148;16.932;2023-02-25T16:13:48;4.10;;;2.83;;
45893;SDS011;31603;51.148;16.932;2023-02-25T16:16:14;4.72;;;3.25;;
45893;SDS011;31603;51.148;16.932;2023-02-25T16:18:43;5.35;;;3.20;;
45893;SDS011;31603;51.148;16.932;2023-02-25T16:21:16;6.60;;;3.40;;
45893;SDS011;31603;51.148;16.932;2023-02-25T16:23:48;5.05;;;3.45;;